createdAt,value
2019-05-16T08:09:30.588Z,22.36
2019-05-16T08:12:01.607Z,22.44
2019-05-16T08:14:30.366Z,22.54
2019-05-16T08:17:01.149Z,22.66
2019-05-16T08:19:30.574Z,22.79
2019-05-16T08:22:01.231Z,22.88
2019-05-16T08:24:30.948Z,23.06
2019-05-16T08:27:01.183Z,23.09
2019-05-16T08:29:31.728Z,23.40
2019-05-16T08:32:02.240Z,23.40
2019-05-16T08:34:32.202Z,23.51
2019-05-16T08:37:01.126Z,23.47
2019-05-16T08:39:31.419Z,23.67
2019-05-16T08:42:07.814Z,23.76
2019-05-16T08:44:32.373Z,23.83
2019-05-16T08:47:06.295Z,23.88
2019-05-16T08:49:30.889Z,23.92
2019-05-16T08:52:01.498Z,24.02
2019-05-16T08:54:31.834Z,24.07
2019-05-16T08:57:17.144Z,24.12
2019-05-16T08:59:33.847Z,24.16
2019-05-16T09:02:03.356Z,24.22
2019-05-16T09:04:33.570Z,24.18
2019-05-16T09:07:01.927Z,24.27
2019-05-16T09:10:34.258Z,24.33
2019-05-16T09:11:59.879Z,24.37
2019-05-16T09:14:31.912Z,24.38
2019-05-16T09:16:58.295Z,24.41
2019-05-16T09:19:27.528Z,24.45
2019-05-16T09:21:58.067Z,24.49
2019-05-16T09:24:27.202Z,24.42
2019-05-16T09:26:57.898Z,24.55
2019-05-16T09:29:27.294Z,24.58
2019-05-16T09:32:09.048Z,24.56
2019-05-16T09:34:28.396Z,24.63
2019-05-16T09:37:00.465Z,24.65
2019-05-16T09:39:27.728Z,24.70
2019-05-16T09:41:58.679Z,24.71
2019-05-16T09:44:27.247Z,24.70
2019-05-16T09:46:56.980Z,24.73
2019-05-16T09:49:26.212Z,24.72
2019-05-16T09:51:56.731Z,24.76
2019-05-16T09:54:27.173Z,24.81
2019-05-16T09:56:56.991Z,24.83
2019-05-16T09:59:26.377Z,24.85
2019-05-16T10:01:57.107Z,24.85
2019-05-16T10:04:26.701Z,24.88
2019-05-16T10:06:57.018Z,24.92
2019-05-16T10:09:40.283Z,24.94
2019-05-16T10:12:10.411Z,24.97
2019-05-16T10:14:26.866Z,24.99
2019-05-16T10:16:57.729Z,24.99
2019-05-16T10:19:27.568Z,24.99
2019-05-16T10:22:00.027Z,25.04
2019-05-16T10:24:26.848Z,25.02
2019-05-16T10:26:57.180Z,25.07
2019-05-16T10:29:27.350Z,25.08
2019-05-16T10:31:56.870Z,25.12
2019-05-16T10:34:26.598Z,25.13
2019-05-16T10:36:57.559Z,25.15
2019-05-16T10:39:26.754Z,25.16
2019-05-16T10:41:57.400Z,25.17
2019-05-16T10:44:28.088Z,25.21
2019-05-16T10:46:55.463Z,25.22
2019-05-16T10:49:34.295Z,24.89
2019-05-16T10:51:53.794Z,25.26
2019-05-16T10:54:22.196Z,25.27
2019-05-16T10:56:50.838Z,25.28
2019-05-16T10:59:54.547Z,25.30
2019-05-16T11:01:49.585Z,25.32
2019-05-16T11:04:28.469Z,25.33
2019-05-16T11:06:48.110Z,25.36
2019-05-16T11:09:17.352Z,25.37
2019-05-16T11:11:47.616Z,25.39
2019-05-16T11:14:17.373Z,25.41
2019-05-16T11:16:47.395Z,25.42
2019-05-16T11:19:21.264Z,25.44
2019-05-16T11:21:46.879Z,25.45
2019-05-16T11:24:15.459Z,25.48
2019-05-16T11:26:43.811Z,25.48
2019-05-16T11:29:12.111Z,25.49
2019-05-16T11:31:40.433Z,25.51
2019-05-16T11:34:08.848Z,25.53
2019-05-16T11:36:37.674Z,25.54
2019-05-16T11:39:08.695Z,25.51
2019-05-16T11:41:37.276Z,25.54
2019-05-16T11:44:06.691Z,25.55
2019-05-16T11:46:37.427Z,25.55
2019-05-16T11:49:05.406Z,25.51
2019-05-16T11:51:33.745Z,25.53
2019-05-16T11:54:02.283Z,25.56
2019-05-16T11:56:30.606Z,25.55
2019-05-16T11:58:58.912Z,25.55
2019-05-16T12:01:27.698Z,25.56
2019-05-16T12:03:57.514Z,25.56
2019-05-16T12:06:26.877Z,25.57
2019-05-16T12:08:55.383Z,25.58
2019-05-16T12:11:23.712Z,25.58
2019-05-16T12:13:52.512Z,23.21
2019-05-16T12:16:20.861Z,25.58
2019-05-16T12:18:49.175Z,25.57
2019-05-16T12:21:17.497Z,25.56
2019-05-16T12:23:47.335Z,25.55
2019-05-16T12:26:17.535Z,25.51
2019-05-16T12:28:45.820Z,25.50
2019-05-16T12:31:17.141Z,25.47
2019-05-16T12:33:44.286Z,25.43
2019-05-16T12:36:12.603Z,25.41
2019-05-16T12:38:41.005Z,25.36
2019-05-16T12:41:09.320Z,25.34
2019-05-16T12:43:48.900Z,25.32
2019-05-16T12:46:08.338Z,25.32
2019-05-16T12:48:37.519Z,25.32
2019-05-16T12:51:08.300Z,25.32
2019-05-16T12:53:36.717Z,25.33
2019-05-16T12:56:05.417Z,25.33
2019-05-16T12:58:42.169Z,25.33
2019-05-16T13:01:04.016Z,25.35
2019-05-16T13:03:32.580Z,25.36
2019-05-16T13:06:00.939Z,25.35
2019-05-16T13:08:29.278Z,25.37
2019-05-16T13:10:57.945Z,25.37
2019-05-16T13:13:27.866Z,25.35
2019-05-16T13:15:56.387Z,25.38
2019-05-16T13:18:27.314Z,25.39
2019-05-16T13:20:57.138Z,25.40
2019-05-16T13:23:26.931Z,25.41
2019-05-16T13:25:57.326Z,25.35
2019-05-16T13:28:25.058Z,25.42
2019-05-16T13:30:53.431Z,25.42
2019-05-16T13:33:21.753Z,25.42
2019-05-16T13:35:50.227Z,25.40
2019-05-16T13:38:18.535Z,25.44
2019-05-16T13:40:46.945Z,25.45
2019-05-16T13:43:17.492Z,25.45
2019-05-16T13:45:47.229Z,25.41
2019-05-16T13:48:17.246Z,25.44
2019-05-16T13:50:47.403Z,25.49
2019-05-16T13:53:16.374Z,25.56
2019-05-16T13:55:47.802Z,25.60
2019-05-16T13:58:17.895Z,25.65
2019-05-16T14:00:47.998Z,25.66
2019-05-16T14:03:17.904Z,25.75
2019-05-16T14:05:47.843Z,25.79
2019-05-16T14:08:17.044Z,25.85
2019-05-16T14:10:48.559Z,25.90
2019-05-16T14:13:16.540Z,25.97
2019-05-16T14:15:47.274Z,26.02
2019-05-16T14:18:17.472Z,26.06
2019-05-16T14:20:46.573Z,26.10
2019-05-16T14:23:17.703Z,26.16
2019-05-16T14:25:48.069Z,26.14
2019-05-16T14:28:17.341Z,26.11
2019-05-16T14:30:46.816Z,26.07
2019-05-16T14:33:17.207Z,26.07
2019-05-16T14:35:47.292Z,26.12
2019-05-16T14:38:17.572Z,26.15
2019-05-16T14:40:50.041Z,26.21
2019-05-16T14:43:17.128Z,26.21
2019-05-16T14:45:46.656Z,26.21
2019-05-16T14:48:18.162Z,26.24
2019-05-16T14:50:47.054Z,26.29
2019-05-16T14:53:17.936Z,26.31
2019-05-16T14:55:47.545Z,26.24
2019-05-16T14:58:15.818Z,26.38
2019-05-16T15:00:48.463Z,26.39
2019-05-16T15:03:14.434Z,26.42
2019-05-16T15:05:43.230Z,26.43
2019-05-16T15:08:11.733Z,26.42
2019-05-16T15:10:40.042Z,26.42
2019-05-16T15:13:08.528Z,26.42
2019-05-16T15:15:37.653Z,26.42
2019-05-16T15:18:08.189Z,26.42
2019-05-16T15:20:36.629Z,26.41
2019-05-16T15:23:07.622Z,26.39
2019-05-16T15:25:37.390Z,26.30
2019-05-16T15:28:07.306Z,26.39
2019-05-16T15:30:39.091Z,26.39
2019-05-16T15:33:08.512Z,26.40
2019-05-16T15:35:38.073Z,26.43
2019-05-16T15:38:07.813Z,26.46
2019-05-16T15:40:37.929Z,26.47
2019-05-16T15:43:07.933Z,26.49
2019-05-16T15:45:43.368Z,26.50
2019-05-16T15:48:12.200Z,26.53
2019-05-16T15:50:40.945Z,26.46
2019-05-16T15:53:09.423Z,26.61
2019-05-16T15:55:38.080Z,26.63
2019-05-16T15:58:07.397Z,26.65
2019-05-16T16:00:39.819Z,26.68
2019-05-16T16:03:08.269Z,26.70
2019-05-16T16:05:37.555Z,26.71
2019-05-16T16:08:06.947Z,26.75
2019-05-16T16:10:37.946Z,26.78
2019-05-16T16:13:06.869Z,26.80
2019-05-16T16:15:49.775Z,26.80
2019-05-16T16:18:08.969Z,26.84
2019-05-16T16:20:37.052Z,26.86
2019-05-16T16:23:06.816Z,26.86
2019-05-16T16:25:35.357Z,26.88
2019-05-16T16:28:07.137Z,26.86
2019-05-16T16:30:37.083Z,26.85
2019-05-16T16:33:19.058Z,26.80
2019-05-16T16:35:37.850Z,26.80
2019-05-16T16:38:07.040Z,26.79
2019-05-16T16:40:36.831Z,26.78
2019-05-16T16:43:07.987Z,26.76
2019-05-16T16:45:35.123Z,26.75
2019-05-16T16:48:03.624Z,26.72
2019-05-16T16:50:31.988Z,26.69
2019-05-16T16:53:00.287Z,26.69
2019-05-16T16:55:28.704Z,26.68
2019-05-16T16:57:59.607Z,26.65
2019-05-16T17:00:28.025Z,26.63
2019-05-16T17:03:05.674Z,26.61
2019-05-16T17:05:29.454Z,26.49
2019-05-16T17:07:57.768Z,26.56
2019-05-16T17:10:27.507Z,26.53
2019-05-16T17:12:57.631Z,26.52
2019-05-16T17:15:27.194Z,26.51
2019-05-16T17:17:57.422Z,26.15
2019-05-16T17:20:25.991Z,26.47
2019-05-16T17:22:54.298Z,26.46
2019-05-16T17:25:22.718Z,26.43
2019-05-16T17:27:51.023Z,26.41
2019-05-16T17:30:20.704Z,26.40
2019-05-16T17:32:49.269Z,26.38
2019-05-16T17:35:19.012Z,26.36
2019-05-16T17:37:48.591Z,26.35
2019-05-16T17:40:17.893Z,26.32
2019-05-16T17:42:47.724Z,26.31
2019-05-16T17:45:18.410Z,26.29
2019-05-16T17:47:46.906Z,26.28
2019-05-16T17:50:17.561Z,26.26
2019-05-16T17:52:47.605Z,26.24
2019-05-16T17:55:17.442Z,26.21
2019-05-16T17:57:46.257Z,26.19
2019-05-16T18:00:24.867Z,25.96
2019-05-16T18:02:46.561Z,25.76
2019-05-16T18:05:17.019Z,25.58
2019-05-16T18:07:47.456Z,25.45
2019-05-16T18:10:17.702Z,25.24
2019-05-16T18:12:48.062Z,24.54
2019-05-16T18:15:20.463Z,24.86
2019-05-16T18:17:48.889Z,24.81
2019-05-16T18:20:18.400Z,24.84
2019-05-16T18:22:47.285Z,24.92
2019-05-16T18:25:16.352Z,24.94
2019-05-16T18:27:44.779Z,24.95
2019-05-16T18:30:13.318Z,24.99
2019-05-16T18:32:41.713Z,25.00
2019-05-16T18:35:10.374Z,25.03
2019-05-16T18:37:38.698Z,25.04
2019-05-16T18:40:08.152Z,25.08
2019-05-16T18:42:37.048Z,25.10
2019-05-16T18:45:08.772Z,25.13
2019-05-16T18:47:37.939Z,25.15
2019-05-16T18:50:10.368Z,25.17
2019-05-16T18:52:38.758Z,25.18
2019-05-16T18:55:08.539Z,25.19
2019-05-16T18:57:37.791Z,25.20
2019-05-16T19:00:10.575Z,25.22
2019-05-16T19:02:37.516Z,25.23
2019-05-16T19:05:07.165Z,25.24
2019-05-16T19:07:36.914Z,25.27
2019-05-16T19:10:07.346Z,25.28
2019-05-16T19:12:37.243Z,25.30
2019-05-16T19:15:08.888Z,25.32
2019-05-16T19:17:37.496Z,25.34
2019-05-16T19:20:06.802Z,25.34
2019-05-16T19:22:37.177Z,25.35
2019-05-16T19:25:07.084Z,25.37
2019-05-16T19:27:37.093Z,25.37
2019-05-16T19:30:07.286Z,25.38
2019-05-16T19:32:39.074Z,25.39
2019-05-16T19:35:07.377Z,25.40
2019-05-16T19:37:40.492Z,25.41
2019-05-16T19:40:06.568Z,25.42
2019-05-16T19:42:36.808Z,25.42
2019-05-16T19:45:09.017Z,25.43
2019-05-16T19:47:41.063Z,25.43
2019-05-16T19:50:07.732Z,25.43
2019-05-16T19:52:36.703Z,25.43
2019-05-16T19:55:09.369Z,25.44
2019-05-16T19:57:37.746Z,25.34
2019-05-16T20:00:07.491Z,25.34
2019-05-16T20:02:36.839Z,25.42
2019-05-16T20:05:06.631Z,25.44
2019-05-16T20:07:37.267Z,25.44
2019-05-16T20:10:09.397Z,25.44
2019-05-16T20:12:37.209Z,25.43
2019-05-16T20:17:52.161Z,25.45
2019-05-16T20:20:11.635Z,25.37
2019-05-16T20:22:40.114Z,25.48
2019-05-16T20:25:08.754Z,25.48
2019-05-16T20:27:37.175Z,25.48
2019-05-16T20:30:07.037Z,25.48
2019-05-16T20:32:37.174Z,25.50
2019-05-16T20:35:08.783Z,25.50
2019-05-16T20:37:36.827Z,25.50
2019-05-16T20:40:09.214Z,25.50
2019-05-16T20:42:36.942Z,25.51
2019-05-16T20:45:08.097Z,25.52
2019-05-16T20:47:36.436Z,25.53
2019-05-16T20:50:07.620Z,25.52
2019-05-16T20:52:37.801Z,25.53
2019-05-16T20:55:07.381Z,25.52
2019-05-16T20:57:37.813Z,25.52
2019-05-16T21:00:07.202Z,25.53
2019-05-16T21:02:37.930Z,25.52
2019-05-16T21:05:06.782Z,25.54
2019-05-16T21:07:37.594Z,25.53
2019-05-16T21:10:08.033Z,25.43
2019-05-16T21:12:40.060Z,25.50
2019-05-16T21:15:07.395Z,25.49
2019-05-16T21:17:35.855Z,25.49
2019-05-16T21:20:07.214Z,25.47
2019-05-16T21:22:37.131Z,25.47
2019-05-16T21:25:06.351Z,25.45
2019-05-16T21:27:37.617Z,25.47
2019-05-16T21:30:07.518Z,25.43
2019-05-16T21:32:36.650Z,25.47
2019-05-16T21:35:07.246Z,25.46
2019-05-16T21:37:37.411Z,25.47
2019-05-16T21:40:08.183Z,25.46
2019-05-16T21:42:36.645Z,25.47
2019-05-16T21:45:07.153Z,25.46
2019-05-16T21:47:36.917Z,25.47
2019-05-16T21:50:07.825Z,25.47
2019-05-16T21:52:36.523Z,25.46
2019-05-16T21:55:07.252Z,25.46
2019-05-16T21:57:37.708Z,25.46
2019-05-16T22:00:13.388Z,25.47
2019-05-16T22:02:41.757Z,25.46
2019-05-16T22:05:10.323Z,25.45
2019-05-16T22:07:38.683Z,24.83
2019-05-16T22:10:07.447Z,25.44
2019-05-16T22:12:38.203Z,25.45
2019-05-16T22:15:06.779Z,25.45
2019-05-16T22:17:36.640Z,25.44
2019-05-16T22:20:07.144Z,25.45
2019-05-16T22:22:38.607Z,25.44
2019-05-16T22:25:07.793Z,25.44
2019-05-16T22:27:36.481Z,25.43
2019-05-16T22:30:08.149Z,25.44
2019-05-16T22:32:36.445Z,25.42
2019-05-16T22:35:08.050Z,25.41
2019-05-16T22:37:48.856Z,25.41
2019-05-16T22:40:06.925Z,25.41
2019-05-16T22:42:37.286Z,25.42
2019-05-16T22:45:10.699Z,25.42
2019-05-16T22:47:39.039Z,25.41
2019-05-16T22:50:07.990Z,25.40
2019-05-16T22:52:36.854Z,25.41
2019-05-16T22:55:07.495Z,25.40
2019-05-16T22:57:35.840Z,25.39
2019-05-16T23:00:10.939Z,25.40
2019-05-16T23:02:39.317Z,25.39
2019-05-16T23:05:07.692Z,25.39
2019-05-16T23:07:36.733Z,25.37
2019-05-16T23:10:07.378Z,25.38
2019-05-16T23:12:37.172Z,25.38
2019-05-16T23:15:07.007Z,25.38
2019-05-16T23:17:37.533Z,25.38
2019-05-16T23:20:06.493Z,25.37
2019-05-16T23:22:36.757Z,25.36
2019-05-16T23:25:06.725Z,25.36
2019-05-16T23:27:36.844Z,25.36
2019-05-16T23:30:09.052Z,25.35
2019-05-16T23:32:37.398Z,25.35
2019-05-16T23:35:07.292Z,25.35
2019-05-16T23:37:37.017Z,25.34
2019-05-16T23:40:09.679Z,25.34
2019-05-16T23:42:37.986Z,25.34
2019-05-16T23:45:09.240Z,25.33
2019-05-16T23:47:37.714Z,25.21
2019-05-16T23:50:07.928Z,25.33
2019-05-16T23:52:36.927Z,25.33
2019-05-16T23:55:08.326Z,25.32
2019-05-16T23:57:37.515Z,25.33
